createdAt,value
2018-10-01T00:00:01.500Z,9.40
2018-10-01T00:02:30.070Z,9.37
2018-10-01T00:04:58.647Z,10.20
2018-10-01T00:07:27.248Z,9.60
2018-10-01T00:09:55.904Z,10.30
2018-10-01T00:12:24.489Z,10.43
2018-10-01T00:14:53.098Z,10.23
2018-10-01T00:17:21.623Z,9.83
2018-10-01T00:19:55.535Z,10.50
2018-10-01T00:22:29.495Z,10.00
2018-10-01T00:24:58.086Z,10.27
2018-10-01T00:27:26.660Z,10.07
2018-10-01T00:29:55.326Z,10.70
2018-10-01T00:32:23.907Z,10.50
2018-10-01T00:34:52.588Z,10.43
2018-10-01T00:37:21.136Z,10.87
2018-10-01T00:39:49.776Z,10.17
2018-10-01T00:42:18.319Z,11.03
2018-10-01T00:44:47.085Z,9.30
2018-10-01T00:47:15.661Z,11.40
2018-10-01T00:49:44.299Z,10.40
2018-10-01T00:52:12.933Z,10.30
2018-10-01T00:54:41.512Z,11.33
2018-10-01T00:57:10.124Z,9.27
2018-10-01T00:59:38.800Z,10.00
2018-10-01T01:02:07.417Z,10.33
2018-10-01T01:04:35.999Z,9.70
2018-10-01T01:07:04.547Z,10.80
2018-10-01T01:09:33.562Z,10.90
2018-10-01T01:12:02.202Z,10.73
2018-10-01T01:14:31.371Z,11.37
2018-10-01T01:17:00.082Z,10.57
2018-10-01T01:19:28.903Z,11.40
2018-10-01T01:21:57.720Z,9.37
2018-10-01T01:24:26.554Z,10.10
2018-10-01T01:26:55.229Z,9.23
2018-10-01T01:29:23.844Z,9.87
2018-10-01T01:31:52.521Z,11.93
2018-10-01T01:34:21.167Z,10.50
2018-10-01T01:36:49.755Z,10.00
2018-10-01T01:39:18.360Z,10.50
2018-10-01T01:41:46.981Z,10.10
2018-10-01T01:44:15.637Z,10.47
2018-10-01T01:46:44.433Z,9.83
2018-10-01T01:49:13.148Z,9.53
2018-10-01T01:51:41.924Z,10.77
2018-10-01T01:54:10.498Z,9.57
2018-10-01T01:56:39.176Z,9.70
2018-10-01T01:59:08.049Z,9.53
2018-10-01T02:01:36.714Z,9.63
2018-10-01T02:04:05.421Z,9.70
2018-10-01T02:06:33.907Z,8.70
2018-10-01T02:09:02.778Z,9.07
2018-10-01T02:11:31.926Z,9.17
2018-10-01T02:14:00.501Z,9.20
2018-10-01T02:16:29.136Z,8.50
2018-10-01T02:18:57.814Z,9.40
2018-10-01T02:21:26.467Z,8.90
2018-10-01T02:23:55.142Z,8.60
2018-10-01T02:26:23.837Z,8.97
2018-10-01T02:28:52.472Z,7.63
2018-10-01T02:31:21.128Z,8.30
2018-10-01T02:33:49.892Z,8.17
2018-10-01T02:36:18.475Z,8.20
2018-10-01T02:38:47.414Z,8.50
2018-10-01T02:41:15.989Z,9.40
2018-10-01T02:43:44.705Z,8.57
2018-10-01T02:46:13.394Z,8.37
2018-10-01T02:48:42.101Z,10.00
2018-10-01T02:51:10.791Z,8.33
2018-10-01T02:53:44.599Z,8.27
2018-10-01T02:56:13.251Z,8.60
2018-10-01T02:58:41.816Z,8.77
2018-10-01T03:01:10.431Z,9.13
2018-10-01T03:03:39.066Z,9.27
2018-10-01T03:06:07.919Z,9.10
2018-10-01T03:08:36.677Z,7.87
2018-10-01T03:11:05.351Z,8.20
2018-10-01T03:13:33.947Z,8.10
2018-10-01T03:16:02.621Z,7.67
2018-10-01T03:18:31.297Z,8.20
2018-10-01T03:21:00.053Z,7.80
2018-10-01T03:23:37.509Z,8.40
2018-10-01T03:26:06.184Z,8.50
2018-10-01T03:28:34.820Z,9.20
2018-10-01T03:31:03.476Z,8.13
2018-10-01T03:33:32.161Z,8.40
2018-10-01T03:36:00.866Z,6.90
2018-10-01T03:38:29.582Z,8.60
2018-10-01T03:40:58.274Z,8.07
2018-10-01T03:43:27.051Z,8.47
2018-10-01T03:45:55.659Z,7.40
2018-10-01T03:48:24.282Z,7.67
2018-10-01T03:50:53.029Z,8.07
2018-10-01T03:53:21.827Z,7.80
2018-10-01T03:55:50.490Z,8.07
2018-10-01T03:58:19.163Z,7.63
2018-10-01T04:00:47.892Z,8.53
2018-10-01T04:03:16.691Z,9.13
2018-10-01T04:05:45.389Z,8.40
2018-10-01T04:08:14.104Z,7.67
2018-10-01T04:10:42.800Z,6.93
2018-10-01T04:13:11.456Z,8.10
2018-10-01T04:15:40.149Z,7.53
2018-10-01T04:18:08.815Z,8.37
2018-10-01T04:20:37.515Z,8.50
2018-10-01T04:23:06.235Z,7.23
2018-10-01T04:25:34.909Z,7.50
2018-10-01T04:28:03.615Z,8.23
2018-10-01T04:30:32.321Z,8.33
2018-10-01T04:33:00.976Z,7.70
2018-10-01T04:35:29.701Z,9.90
2018-10-01T04:37:58.346Z,7.53
2018-10-01T04:40:26.991Z,7.40
2018-10-01T04:42:55.549Z,6.80
2018-10-01T04:45:24.193Z,7.73
2018-10-01T04:47:53.089Z,7.27
2018-10-01T04:50:21.762Z,6.73
2018-10-01T04:52:50.597Z,7.37
2018-10-01T04:55:19.232Z,6.67
2018-10-01T04:57:47.849Z,6.60
2018-10-01T05:00:16.585Z,6.93
2018-10-01T05:02:45.319Z,8.17
2018-10-01T05:05:14.014Z,6.97
2018-10-01T05:07:42.530Z,6.63
2018-10-01T05:10:11.112Z,6.07
2018-10-01T05:12:39.899Z,6.27
2018-10-01T05:15:08.492Z,6.07
2018-10-01T05:17:37.093Z,6.53
2018-10-01T05:20:06.107Z,5.77
2018-10-01T05:22:34.850Z,5.43
2018-10-01T05:25:03.860Z,5.73
2018-10-01T05:27:32.588Z,5.33
2018-10-01T05:30:01.592Z,4.80
2018-10-01T05:32:30.480Z,5.43
2018-10-01T05:34:59.332Z,4.37
2018-10-01T05:37:27.874Z,4.40
2018-10-01T05:39:56.271Z,4.83
2018-10-01T05:42:25.161Z,4.67
2018-10-01T05:44:54.415Z,4.80
2018-10-01T05:47:23.110Z,5.07
2018-10-01T05:49:51.718Z,4.87
2018-10-01T05:52:20.442Z,4.93
2018-10-01T05:54:48.975Z,5.20
2018-10-01T05:57:17.898Z,5.13
2018-10-01T05:59:46.508Z,4.57
2018-10-01T06:02:15.224Z,4.83
2018-10-01T06:04:43.798Z,4.17
2018-10-01T06:07:12.446Z,4.53
2018-10-01T06:09:40.982Z,4.70
2018-10-01T06:12:09.549Z,5.00
2018-10-01T06:14:38.114Z,4.30
2018-10-01T06:17:06.908Z,4.20
2018-10-01T06:19:35.644Z,4.87
2018-10-01T06:22:04.324Z,4.27
2018-10-01T06:24:32.846Z,4.00
2018-10-01T06:27:01.854Z,4.20
2018-10-01T06:29:30.541Z,4.30
2018-10-01T06:31:59.658Z,3.73
2018-10-01T06:34:28.197Z,2.97
2018-10-01T06:36:56.809Z,2.87
2018-10-01T06:39:25.415Z,4.40
2018-10-01T06:41:54.220Z,3.50
2018-10-01T06:44:22.553Z,3.70
2018-10-01T06:46:51.352Z,3.43
2018-10-01T06:49:19.789Z,3.03
2018-10-01T06:51:48.497Z,3.83
2018-10-01T06:54:17.576Z,2.90
2018-10-01T06:56:46.131Z,3.27
2018-10-01T06:59:14.762Z,3.50
2018-10-01T07:01:43.310Z,2.83
2018-10-01T07:04:12.430Z,3.17
2018-10-01T07:06:40.878Z,2.53
2018-10-01T07:09:10.817Z,2.50
2018-10-01T07:11:40.137Z,2.07
2018-10-01T07:14:08.731Z,2.00
2018-10-01T07:16:37.278Z,2.10
2018-10-01T07:19:05.949Z,1.50
2018-10-01T07:21:35.453Z,1.80
2018-10-01T07:24:04.193Z,1.50
2018-10-01T07:26:32.907Z,2.00
2018-10-01T07:29:01.642Z,1.40
2018-10-01T07:31:30.204Z,1.83
2018-10-01T07:33:58.991Z,1.67
2018-10-01T07:36:34.114Z,1.53
2018-10-01T07:39:03.032Z,1.57
2018-10-01T07:41:31.616Z,1.97
2018-10-01T07:44:00.191Z,1.23
2018-10-01T07:46:29.060Z,1.30
2018-10-01T07:48:57.946Z,1.63
2018-10-01T07:51:26.717Z,1.40
2018-10-01T07:53:55.373Z,1.60
2018-10-01T07:56:24.049Z,1.20
2018-10-01T07:58:54.680Z,1.30
2018-10-01T08:01:23.264Z,1.40
2018-10-01T08:03:52.017Z,1.30
2018-10-01T08:06:21.225Z,1.37
2018-10-01T08:08:50.278Z,1.00
2018-10-01T08:11:19.619Z,1.20
2018-10-01T08:13:49.446Z,1.50
2018-10-01T08:16:21.686Z,1.30
2018-10-01T08:18:50.694Z,1.20
2018-10-01T08:21:20.019Z,1.50
2018-10-01T08:23:48.830Z,1.23
2018-10-01T08:26:18.278Z,1.10
2018-10-01T08:28:47.341Z,1.10
2018-10-01T08:31:16.493Z,1.20
2018-10-01T08:33:45.153Z,1.50
2018-10-01T08:36:15.194Z,1.07
2018-10-01T08:38:44.274Z,1.40
2018-10-01T08:41:12.854Z,1.70
2018-10-01T08:43:41.387Z,1.37
2018-10-01T08:46:11.464Z,1.43
2018-10-01T08:48:45.545Z,1.40
2018-10-01T08:51:20.634Z,1.17
2018-10-01T08:53:56.829Z,1.30
2018-10-01T08:56:25.571Z,1.17
2018-10-01T08:58:54.059Z,1.20
2018-10-01T09:01:22.865Z,1.30
2018-10-01T09:03:51.751Z,1.37
2018-10-01T09:06:20.523Z,1.27
2018-10-01T09:08:49.259Z,1.20
2018-10-01T09:11:18.559Z,1.53
2018-10-01T09:13:46.990Z,1.70
2018-10-01T09:16:15.512Z,1.53
2018-10-01T09:18:44.256Z,1.20
2018-10-01T09:21:12.753Z,1.13
2018-10-01T09:23:41.596Z,1.97
2018-10-01T09:26:10.355Z,1.73
2018-10-01T09:28:39.636Z,1.33
2018-10-01T09:31:08.362Z,1.63
2018-10-01T09:33:37.002Z,2.00
2018-10-01T09:36:05.980Z,1.70
2018-10-01T09:38:34.591Z,1.70
2018-10-01T09:41:03.338Z,1.50
2018-10-01T09:43:32.427Z,1.30
2018-10-01T09:46:01.067Z,2.50
2018-10-01T09:48:31.644Z,1.77
2018-10-01T09:51:00.191Z,2.37
2018-10-01T09:53:29.595Z,1.63
2018-10-01T09:55:58.565Z,1.70
2018-10-01T09:58:27.499Z,2.20
2018-10-01T10:01:02.071Z,1.57
2018-10-01T10:03:30.828Z,1.90
2018-10-01T10:05:59.567Z,1.80
2018-10-01T10:08:28.389Z,1.90
2018-10-01T10:10:57.151Z,1.93
2018-10-01T10:13:25.773Z,1.50
2018-10-01T10:15:54.422Z,1.60
2018-10-01T10:18:23.263Z,1.93
2018-10-01T10:20:52.571Z,1.40
2018-10-01T10:23:23.366Z,2.17
2018-10-01T10:25:51.931Z,1.40
2018-10-01T10:28:20.856Z,1.40
2018-10-01T10:30:49.540Z,1.27
2018-10-01T10:33:18.035Z,1.20
2018-10-01T10:35:46.579Z,1.50
2018-10-01T10:38:15.275Z,1.50
2018-10-01T10:40:44.244Z,1.83
2018-10-01T10:43:13.405Z,1.60
2018-10-01T10:45:42.279Z,1.70
2018-10-01T10:48:10.851Z,2.07
2018-10-01T10:50:40.020Z,1.20
2018-10-01T10:53:09.000Z,1.50
2018-10-01T10:55:37.686Z,1.50
2018-10-01T10:58:07.971Z,1.50
2018-10-01T11:00:36.490Z,1.80
2018-10-01T11:03:05.263Z,1.30
2018-10-01T11:05:34.680Z,1.40
2018-10-01T11:08:03.204Z,1.20
2018-10-01T11:10:32.008Z,1.20
2018-10-01T11:13:00.925Z,1.60
2018-10-01T11:15:29.577Z,1.20
2018-10-01T11:17:58.112Z,1.27
2018-10-01T11:20:26.731Z,1.10
2018-10-01T11:22:55.041Z,1.03
2018-10-01T11:25:23.586Z,1.10
2018-10-01T11:27:52.883Z,1.30
2018-10-01T11:30:23.240Z,1.40
2018-10-01T11:32:52.330Z,1.20
2018-10-01T11:35:21.130Z,1.30
2018-10-01T11:37:49.642Z,1.60
2018-10-01T11:40:18.993Z,1.23
2018-10-01T11:42:47.742Z,1.50
2018-10-01T11:45:16.946Z,1.20
2018-10-01T11:47:45.656Z,1.57
2018-10-01T11:50:14.932Z,1.80
2018-10-01T11:52:43.506Z,1.30
2018-10-01T11:55:11.941Z,1.70
2018-10-01T11:57:40.514Z,1.87
2018-10-01T12:00:09.725Z,2.40
2018-10-01T12:02:38.150Z,1.60
2018-10-01T12:05:07.579Z,2.20
2018-10-01T12:07:36.142Z,1.60
2018-10-01T12:10:04.825Z,2.17
2018-10-01T12:12:33.321Z,1.73
2018-10-01T12:15:05.016Z,2.00
2018-10-01T12:17:33.553Z,2.00
2018-10-01T12:20:07.759Z,1.50
2018-10-01T12:22:36.572Z,1.40
2018-10-01T12:25:05.791Z,2.30
2018-10-01T12:27:34.523Z,1.60
2018-10-01T12:30:03.106Z,1.67
2018-10-01T12:32:31.759Z,2.00
2018-10-01T12:35:00.830Z,2.47
2018-10-01T12:37:31.435Z,1.80
2018-10-01T12:40:00.526Z,2.47
2018-10-01T12:42:29.396Z,1.80
2018-10-01T12:44:58.923Z,2.10
2018-10-01T12:47:27.524Z,2.17
2018-10-01T12:49:56.055Z,2.50
2018-10-01T12:52:24.512Z,1.73
2018-10-01T12:54:52.973Z,1.70
2018-10-01T12:57:21.457Z,3.03
2018-10-01T12:59:51.290Z,1.93
2018-10-01T13:02:20.443Z,1.50
2018-10-01T13:04:48.878Z,1.93
2018-10-01T13:07:17.251Z,1.60
2018-10-01T13:09:45.882Z,1.53
2018-10-01T13:12:15.106Z,1.53
2018-10-01T13:14:43.460Z,1.43
2018-10-01T13:17:12.077Z,1.77
2018-10-01T13:19:41.208Z,2.73
2018-10-01T13:22:10.768Z,2.40
2018-10-01T13:24:39.668Z,2.17
2018-10-01T13:27:08.084Z,2.80
2018-10-01T13:29:37.773Z,2.50
2018-10-01T13:32:06.388Z,2.60
2018-10-01T13:34:35.369Z,2.73
2018-10-01T13:37:04.547Z,2.20
2018-10-01T13:39:34.543Z,2.67
2018-10-01T13:42:03.313Z,2.50
2018-10-01T13:44:32.510Z,2.73
2018-10-01T13:47:00.875Z,3.67
2018-10-01T13:49:29.424Z,2.60
2018-10-01T13:51:58.516Z,2.83
2018-10-01T13:54:27.302Z,3.27
2018-10-01T13:56:55.912Z,2.93
2018-10-01T13:59:24.565Z,2.60
2018-10-01T14:01:53.242Z,3.20
2018-10-01T14:04:21.712Z,3.67
2018-10-01T14:06:50.464Z,2.70
2018-10-01T14:09:19.539Z,3.10
2018-10-01T14:11:48.326Z,2.17
2018-10-01T14:14:16.792Z,2.40
2018-10-01T14:16:45.428Z,2.03
2018-10-01T14:19:15.114Z,3.10
2018-10-01T14:21:44.816Z,2.33
2018-10-01T14:24:13.782Z,2.73
2018-10-01T14:26:43.589Z,2.20
2018-10-01T14:29:12.377Z,2.47
2018-10-01T14:31:42.648Z,2.97
2018-10-01T14:34:11.793Z,2.87
2018-10-01T14:36:40.843Z,2.97
2018-10-01T14:39:10.053Z,2.50
2018-10-01T14:41:38.592Z,2.50
2018-10-01T14:44:07.006Z,2.53
2018-10-01T14:46:36.326Z,2.60
2018-10-01T14:49:04.856Z,1.73
2018-10-01T14:51:34.499Z,2.30
2018-10-01T14:54:03.251Z,1.90
2018-10-01T14:56:33.089Z,2.00
2018-10-01T14:59:02.382Z,1.60
2018-10-01T15:01:31.328Z,1.90
2018-10-01T15:04:00.650Z,2.00
2018-10-01T15:06:29.759Z,1.40
2018-10-01T15:08:58.451Z,1.70
2018-10-01T15:11:26.999Z,1.57
2018-10-01T15:13:56.032Z,2.13
2018-10-01T15:16:25.382Z,1.90
2018-10-01T15:18:54.274Z,2.00
2018-10-01T15:21:23.537Z,1.63
2018-10-01T15:23:52.236Z,2.07
2018-10-01T15:26:20.986Z,1.80
2018-10-01T15:28:49.441Z,1.53
2018-10-01T15:31:17.988Z,2.23
2018-10-01T15:33:46.770Z,1.57
2018-10-01T15:36:15.947Z,1.50
2018-10-01T15:38:44.395Z,2.57
2018-10-01T15:41:13.074Z,1.50
2018-10-01T15:43:41.751Z,2.20
2018-10-01T15:46:10.462Z,1.70
2018-10-01T15:48:39.952Z,2.00
2018-10-01T15:51:08.655Z,2.10
2018-10-01T15:53:37.113Z,2.53
2018-10-01T15:56:05.875Z,1.80
2018-10-01T15:58:34.805Z,1.63
2018-10-01T16:01:03.420Z,1.37
2018-10-01T16:03:31.967Z,1.30
2018-10-01T16:06:00.508Z,1.83
2018-10-01T16:08:29.360Z,1.47
2018-10-01T16:10:58.054Z,1.40
2018-10-01T16:13:26.605Z,2.27
2018-10-01T16:15:55.385Z,1.73
2018-10-01T16:18:24.512Z,1.30
2018-10-01T16:20:53.254Z,1.57
2018-10-01T16:23:21.861Z,1.80
2018-10-01T16:25:50.315Z,1.40
2018-10-01T16:28:19.004Z,1.97
2018-10-01T16:30:47.611Z,1.87
2018-10-01T16:33:16.153Z,1.73
2018-10-01T16:35:44.571Z,1.60
2018-10-01T16:38:13.078Z,1.80
2018-10-01T16:40:42.015Z,1.50
2018-10-01T16:43:10.865Z,1.80
2018-10-01T16:45:39.522Z,1.50
2018-10-01T16:48:08.198Z,1.63
2018-10-01T16:50:36.912Z,1.90
2018-10-01T16:53:05.615Z,1.80
2018-10-01T16:55:34.253Z,2.10
2018-10-01T16:58:04.043Z,1.90
2018-10-01T17:00:32.532Z,1.83
2018-10-01T17:03:01.291Z,1.90
2018-10-01T17:05:29.982Z,2.23
2018-10-01T17:07:58.639Z,1.97
2018-10-01T17:10:27.108Z,1.90
2018-10-01T17:12:55.726Z,1.93
2018-10-01T17:15:25.038Z,1.70
2018-10-01T17:17:53.497Z,2.17
2018-10-01T17:20:22.056Z,2.47
2018-10-01T17:22:50.928Z,1.83
2018-10-01T17:25:21.500Z,2.13
2018-10-01T17:27:50.506Z,1.80
2018-10-01T17:30:19.153Z,2.13
2018-10-01T17:32:48.003Z,1.30
2018-10-01T17:35:16.662Z,2.07
2018-10-01T17:37:45.337Z,1.90
2018-10-01T17:40:14.052Z,2.23
2018-10-01T17:42:42.747Z,1.90
2018-10-01T17:45:11.607Z,2.03
2018-10-01T17:47:40.356Z,2.80
2018-10-01T17:50:09.073Z,2.43
2018-10-01T17:52:37.747Z,1.83
2018-10-01T17:55:06.817Z,2.57
2018-10-01T17:57:36.800Z,2.57
2018-10-01T18:00:06.369Z,2.07
2018-10-01T18:02:34.960Z,2.37
2018-10-01T18:05:03.943Z,2.60
2018-10-01T18:07:32.718Z,2.80
2018-10-01T18:10:01.416Z,2.53
2018-10-01T18:12:30.029Z,2.33
2018-10-01T18:14:58.893Z,3.50
2018-10-01T18:17:27.517Z,5.20
2018-10-01T18:19:56.533Z,3.27
2018-10-01T18:22:25.187Z,3.30
2018-10-01T18:24:53.823Z,5.57
2018-10-01T18:27:22.638Z,4.23
2018-10-01T18:29:51.197Z,11.20
2018-10-01T18:32:19.789Z,6.20
2018-10-01T18:34:48.503Z,3.90
2018-10-01T18:37:17.478Z,5.20
2018-10-01T18:39:46.189Z,3.70
2018-10-01T18:42:14.815Z,7.37
2018-10-01T18:44:43.403Z,4.83
2018-10-01T18:47:12.177Z,21.87
2018-10-01T18:49:41.074Z,7.80
2018-10-01T18:52:09.549Z,2.67
2018-10-01T18:54:38.067Z,3.53
2018-10-01T18:57:06.524Z,4.63
2018-10-01T18:59:35.333Z,4.43
2018-10-01T19:02:04.133Z,3.67
2018-10-01T19:04:32.846Z,5.27
2018-10-01T19:07:01.375Z,7.33
2018-10-01T19:09:29.854Z,14.10
2018-10-01T19:11:58.430Z,6.37
2018-10-01T19:14:26.850Z,3.83
2018-10-01T19:16:55.473Z,4.37
2018-10-01T19:19:24.333Z,8.00
2018-10-01T19:21:52.989Z,4.00
2018-10-01T19:24:21.554Z,4.40
2018-10-01T19:26:50.366Z,3.30
2018-10-01T19:29:19.055Z,4.20
2018-10-01T19:31:47.656Z,17.53
2018-10-01T19:34:16.401Z,7.60
2018-10-01T19:36:44.922Z,9.90
2018-10-01T19:39:13.507Z,5.33
2018-10-01T19:41:42.053Z,4.80
2018-10-01T19:44:10.814Z,4.80
2018-10-01T19:46:39.392Z,3.30
2018-10-01T19:49:08.017Z,4.53
2018-10-01T19:51:36.532Z,3.70
2018-10-01T19:54:05.128Z,4.30
2018-10-01T19:56:33.973Z,4.70
2018-10-01T19:59:02.986Z,5.87
2018-10-01T20:01:31.612Z,5.80
2018-10-01T20:04:00.082Z,10.23
2018-10-01T20:06:28.782Z,7.00
2018-10-01T20:08:57.745Z,8.43
2018-10-01T20:11:26.473Z,9.60
2018-10-01T20:13:55.088Z,41.37
2018-10-01T20:16:23.864Z,9.10
2018-10-01T20:18:52.888Z,4.07
2018-10-01T20:21:21.701Z,2.90
2018-10-01T20:23:50.388Z,2.93
2018-10-01T20:26:19.003Z,4.30
2018-10-01T20:28:47.902Z,2.90
2018-10-01T20:31:16.131Z,3.10
2018-10-01T20:33:44.776Z,4.07
2018-10-01T20:36:13.289Z,3.00
2018-10-01T20:38:41.872Z,3.10
2018-10-01T20:41:10.662Z,3.53
2018-10-01T20:43:39.512Z,3.53
2018-10-01T20:46:08.374Z,3.90
2018-10-01T20:48:37.018Z,3.47
2018-10-01T20:51:05.855Z,3.63
2018-10-01T20:53:34.501Z,4.23
2018-10-01T20:56:03.087Z,4.07
2018-10-01T20:58:31.740Z,3.93
2018-10-01T21:01:00.335Z,5.00
2018-10-01T21:03:29.073Z,4.23
2018-10-01T21:05:57.845Z,4.87
2018-10-01T21:08:26.503Z,3.97
2018-10-01T21:10:55.101Z,4.10
2018-10-01T21:13:23.767Z,3.10
2018-10-01T21:15:52.525Z,3.87
2018-10-01T21:18:21.111Z,3.80
2018-10-01T21:20:49.875Z,3.30
2018-10-01T21:23:18.334Z,3.80
2018-10-01T21:25:46.805Z,3.83
2018-10-01T21:28:15.496Z,3.80
2018-10-01T21:30:44.174Z,4.50
2018-10-01T21:33:12.703Z,3.70
2018-10-01T21:35:41.386Z,4.30
2018-10-01T21:38:10.121Z,4.77
2018-10-01T21:40:38.749Z,4.07
2018-10-01T21:43:07.464Z,3.07
2018-10-01T21:45:36.148Z,3.27
2018-10-01T21:48:04.675Z,3.93
2018-10-01T21:50:33.499Z,4.80
2018-10-01T21:53:02.294Z,3.67
2018-10-01T21:55:30.959Z,4.20
2018-10-01T21:57:59.512Z,3.93
2018-10-01T22:00:32.368Z,4.00
2018-10-01T22:03:00.933Z,5.20
2018-10-01T22:05:29.632Z,4.80
2018-10-01T22:07:58.417Z,4.20
2018-10-01T22:10:27.138Z,3.43
2018-10-01T22:12:55.726Z,3.47
2018-10-01T22:15:24.265Z,3.10
2018-10-01T22:17:53.053Z,2.83
2018-10-01T22:20:21.498Z,2.67
2018-10-01T22:22:50.034Z,3.43
2018-10-01T22:25:18.829Z,3.33
2018-10-01T22:27:47.543Z,3.30
2018-10-01T22:30:16.079Z,2.77
2018-10-01T22:32:44.683Z,2.63
2018-10-01T22:35:13.269Z,2.37
2018-10-01T22:37:41.861Z,3.30
2018-10-01T22:40:10.839Z,2.67
2018-10-01T22:42:39.514Z,2.50
2018-10-01T22:45:08.097Z,2.20
2018-10-01T22:47:36.828Z,2.20
2018-10-01T22:50:05.970Z,2.63
2018-10-01T22:52:34.614Z,2.33
2018-10-01T22:55:03.308Z,2.40
2018-10-01T22:57:31.916Z,2.67
2018-10-01T23:00:00.561Z,2.33
2018-10-01T23:02:29.234Z,2.17
2018-10-01T23:04:57.668Z,1.93
2018-10-01T23:07:26.339Z,2.03
2018-10-01T23:09:55.020Z,2.27
2018-10-01T23:12:23.714Z,2.73
2018-10-01T23:14:52.310Z,2.30
2018-10-01T23:17:20.937Z,2.43
2018-10-01T23:19:49.599Z,2.57
2018-10-01T23:22:18.335Z,2.40
2018-10-01T23:24:46.948Z,2.70
2018-10-01T23:27:15.644Z,3.20
2018-10-01T23:29:44.231Z,2.97
2018-10-01T23:32:12.791Z,2.30
2018-10-01T23:34:41.430Z,2.73
2018-10-01T23:37:10.105Z,2.77
2018-10-01T23:39:39.021Z,2.60
2018-10-01T23:42:07.660Z,3.10
2018-10-01T23:44:36.301Z,3.70
2018-10-01T23:47:07.986Z,3.20
2018-10-01T23:49:36.680Z,2.83
2018-10-01T23:52:05.314Z,3.10
2018-10-01T23:54:33.909Z,3.13
2018-10-01T23:57:02.525Z,2.50
2018-10-01T23:59:31.261Z,2.50
